createdAt,value
2022-08-03T00:02:17.745Z,82.27
2022-08-03T00:04:45.399Z,82.34
2022-08-03T00:07:12.929Z,82.26
2022-08-03T00:09:40.434Z,82.84
2022-08-03T00:12:08.140Z,83.15
2022-08-03T00:14:35.750Z,83.65
2022-08-03T00:17:03.486Z,84.38
2022-08-03T00:19:31.330Z,84.16
2022-08-03T00:21:58.934Z,84.18
2022-08-03T00:24:26.531Z,84.03
2022-08-03T00:26:54.182Z,84.49
2022-08-03T00:29:21.766Z,85.11
2022-08-03T00:31:52.856Z,85.17
2022-08-03T00:34:57.927Z,85.47
2022-08-03T00:37:14.698Z,85.65
2022-08-03T00:39:45.928Z,86.31
2022-08-03T00:42:14.132Z,87.11
2022-08-03T00:44:43.763Z,87.89
2022-08-03T00:47:11.875Z,88.01
2022-08-03T00:49:40.878Z,88.21
2022-08-03T00:52:13.629Z,88.86
2022-08-03T00:54:41.281Z,89.36
2022-08-03T00:57:08.947Z,89.56
2022-08-03T00:59:38.213Z,90.13
2022-08-03T01:02:06.545Z,90.51
2022-08-03T01:04:34.001Z,90.53
2022-08-03T01:07:17.851Z,90.64
2022-08-03T01:09:58.042Z,90.93
2022-08-03T01:12:53.833Z,92.58
2022-08-03T01:15:49.406Z,91.50
2022-08-03T01:18:43.379Z,91.50
2022-08-03T01:21:17.174Z,91.31
2022-08-03T01:23:47.642Z,91.11
2022-08-03T01:26:55.733Z,91.20
2022-08-03T01:29:47.380Z,91.73
2022-08-03T01:33:02.405Z,92.14
2022-08-03T01:35:38.618Z,92.86
2022-08-03T01:38:34.720Z,92.72
2022-08-03T01:41:12.157Z,92.92
2022-08-03T01:43:55.339Z,93.29
2022-08-03T01:46:33.523Z,93.12
2022-08-03T01:49:09.306Z,93.52
2022-08-03T01:52:02.722Z,93.83
2022-08-03T01:54:31.264Z,94.44
2022-08-03T01:56:59.934Z,94.70
2022-08-03T01:59:29.052Z,95.42
2022-08-03T02:02:25.197Z,96.78
2022-08-03T02:04:47.335Z,97.12
2022-08-03T02:07:16.408Z,97.46
2022-08-03T02:09:49.892Z,98.53
2022-08-03T02:12:18.991Z,99.75
2022-08-03T02:14:48.831Z,100.00
2022-08-03T02:17:16.772Z,100.00
2022-08-03T02:19:45.388Z,100.00
2022-08-03T02:22:14.498Z,100.00
2022-08-03T02:24:42.353Z,100.00
2022-08-03T02:27:23.018Z,100.00
2022-08-03T02:29:58.885Z,100.00
2022-08-03T02:32:31.681Z,100.00
2022-08-03T02:35:01.024Z,100.00
2022-08-03T02:37:32.294Z,100.00
2022-08-03T02:40:04.474Z,100.00
2022-08-03T02:42:35.545Z,100.00
2022-08-03T02:45:08.303Z,100.00
2022-08-03T02:47:53.233Z,100.00
2022-08-03T02:50:23.704Z,100.00
2022-08-03T02:52:53.189Z,100.00
2022-08-03T02:55:22.875Z,100.00
2022-08-03T02:57:51.725Z,100.00
2022-08-03T03:00:27.853Z,100.00
2022-08-03T03:02:58.415Z,100.00
2022-08-03T03:05:53.052Z,100.00
2022-08-03T03:08:18.810Z,100.00
2022-08-03T03:10:48.977Z,100.00
2022-08-03T03:13:22.410Z,100.00
2022-08-03T03:15:52.111Z,100.00
2022-08-03T03:18:22.803Z,100.00
2022-08-03T03:20:52.968Z,100.00
2022-08-03T03:23:23.343Z,100.00
2022-08-03T03:25:52.361Z,100.00
2022-08-03T03:28:20.796Z,100.00
2022-08-03T03:30:52.715Z,100.00
2022-08-03T03:33:21.791Z,100.00
2022-08-03T03:35:50.447Z,100.00
2022-08-03T03:38:18.706Z,100.00
2022-08-03T03:40:46.363Z,100.00
2022-08-03T03:43:14.173Z,100.00
2022-08-03T03:45:43.025Z,100.00
2022-08-03T03:48:10.856Z,100.00
2022-08-03T03:50:41.666Z,100.00
2022-08-03T03:53:13.392Z,100.00
2022-08-03T03:55:59.111Z,100.00
2022-08-03T03:58:30.546Z,100.00
2022-08-03T04:00:58.012Z,100.00
2022-08-03T04:03:25.543Z,100.00
2022-08-03T04:06:11.633Z,100.00
2022-08-03T04:08:59.118Z,100.00
2022-08-03T04:11:39.408Z,100.00
2022-08-03T04:14:20.850Z,100.00
2022-08-03T04:16:59.973Z,100.00
2022-08-03T04:19:35.785Z,100.00
2022-08-03T04:22:09.781Z,100.00
2022-08-03T04:24:51.462Z,100.00
2022-08-03T04:27:25.734Z,100.00
2022-08-03T04:29:56.904Z,100.00
2022-08-03T04:32:28.611Z,100.00
2022-08-03T04:34:56.172Z,100.00
2022-08-03T04:37:47.946Z,100.00
2022-08-03T04:40:22.847Z,99.23
2022-08-03T04:42:52.005Z,97.54
2022-08-03T04:45:21.251Z,96.89
2022-08-03T04:47:49.020Z,96.55
2022-08-03T04:50:21.192Z,96.30
2022-08-03T04:53:05.896Z,96.08
2022-08-03T04:55:36.487Z,96.81
2022-08-03T04:58:06.280Z,96.88
2022-08-03T05:00:33.781Z,96.38
2022-08-03T05:03:01.300Z,96.42
2022-08-03T05:05:34.924Z,96.01
2022-08-03T05:08:16.871Z,95.24
2022-08-03T05:10:59.177Z,94.29
2022-08-03T05:13:27.513Z,93.64
2022-08-03T05:15:55.018Z,93.00
2022-08-03T05:18:22.597Z,92.35
2022-08-03T05:20:50.145Z,91.75
2022-08-03T05:23:18.042Z,92.27
2022-08-03T05:25:50.198Z,91.15
2022-08-03T05:28:18.000Z,90.83
2022-08-03T05:30:45.395Z,90.35
2022-08-03T05:33:12.815Z,89.30
2022-08-03T05:35:55.699Z,87.15
2022-08-03T05:38:34.287Z,85.16
2022-08-03T05:41:21.813Z,82.30
2022-08-03T05:43:53.689Z,80.32
2022-08-03T05:46:24.957Z,76.77
2022-08-03T05:48:52.582Z,72.20
2022-08-03T05:51:20.340Z,68.46
2022-08-03T05:53:47.971Z,67.41
2022-08-03T05:56:16.563Z,68.02
2022-08-03T05:58:47.925Z,67.01
2022-08-03T06:01:16.852Z,67.86
2022-08-03T06:03:45.058Z,67.42
2022-08-03T06:06:12.585Z,67.23
2022-08-03T06:08:41.165Z,67.60
2022-08-03T06:11:09.809Z,66.70
2022-08-03T06:13:37.550Z,66.83
2022-08-03T06:16:05.375Z,66.66
2022-08-03T06:18:32.849Z,66.18
2022-08-03T06:21:14.814Z,65.73
2022-08-03T06:23:54.178Z,66.21
2022-08-03T06:26:23.428Z,66.51
2022-08-03T06:28:52.387Z,67.09
2022-08-03T06:31:24.193Z,66.84
2022-08-03T06:34:33.834Z,66.92
2022-08-03T06:36:39.403Z,65.78
2022-08-03T06:39:08.364Z,66.05
2022-08-03T06:41:38.079Z,65.94
2022-08-03T06:44:12.594Z,64.61
2022-08-03T06:46:40.493Z,64.51
2022-08-03T06:49:08.057Z,64.28
2022-08-03T06:52:03.625Z,62.96
2022-08-03T06:54:22.379Z,61.57
2022-08-03T06:56:49.439Z,60.80
2022-08-03T07:00:07.822Z,60.79
2022-08-03T07:02:04.572Z,61.46
2022-08-03T07:04:31.560Z,61.24
2022-08-03T07:06:58.685Z,61.39
2022-08-03T07:09:26.725Z,61.36
2022-08-03T07:11:55.055Z,60.70
2022-08-03T07:14:22.370Z,60.00
2022-08-03T07:16:49.396Z,60.05
2022-08-03T07:19:16.581Z,60.16
2022-08-03T07:21:43.664Z,59.53
2022-08-03T07:24:10.670Z,60.06
2022-08-03T07:26:38.171Z,59.98
2022-08-03T07:29:11.909Z,57.93
2022-08-03T07:31:42.873Z,57.85
2022-08-03T07:34:10.279Z,57.10
2022-08-03T07:36:37.843Z,56.78
2022-08-03T07:39:16.506Z,56.92
2022-08-03T07:41:46.255Z,55.83
2022-08-03T07:44:13.982Z,54.26
2022-08-03T07:46:41.413Z,53.05
2022-08-03T07:49:08.930Z,53.48
2022-08-03T07:51:36.612Z,53.48
2022-08-03T07:54:04.245Z,51.90
2022-08-03T07:56:32.222Z,50.92
2022-08-03T07:58:59.817Z,49.42
2022-08-03T08:01:27.325Z,48.94
2022-08-03T08:03:54.845Z,47.14
2022-08-03T08:06:22.876Z,46.29
2022-08-03T08:08:50.367Z,45.03
2022-08-03T08:11:18.530Z,43.77
2022-08-03T08:13:45.919Z,43.77
2022-08-03T08:16:13.333Z,42.50
2022-08-03T08:18:40.695Z,42.12
2022-08-03T08:21:08.771Z,41.48
2022-08-03T08:23:43.493Z,40.54
2022-08-03T08:26:12.752Z,39.60
2022-08-03T08:28:40.363Z,39.08
2022-08-03T08:31:07.845Z,37.61
2022-08-03T08:34:03.012Z,36.28
2022-08-03T08:36:24.132Z,35.88
2022-08-03T08:38:51.563Z,35.80
2022-08-03T08:41:19.401Z,34.28
2022-08-03T08:43:46.922Z,34.33
2022-08-03T08:46:23.061Z,34.58
2022-08-03T08:48:52.649Z,34.90
2022-08-03T08:51:22.198Z,34.83
2022-08-03T08:53:53.765Z,34.82
2022-08-03T08:56:25.711Z,34.56
2022-08-03T08:58:58.887Z,33.42
2022-08-03T09:01:26.618Z,31.93
2022-08-03T09:03:54.423Z,32.57
2022-08-03T09:06:23.174Z,30.52
2022-08-03T09:08:50.626Z,30.87
2022-08-03T09:11:52.489Z,30.70
2022-08-03T09:14:11.311Z,30.38
2022-08-03T09:17:03.069Z,28.99
2022-08-03T09:19:32.922Z,29.00
2022-08-03T09:22:14.174Z,28.44
2022-08-03T09:25:23.957Z,30.73
2022-08-03T09:27:52.182Z,30.32
2022-08-03T09:30:34.437Z,30.64
2022-08-03T09:33:10.382Z,28.62
2022-08-03T09:35:57.478Z,28.84
2022-08-03T09:38:28.925Z,27.06
2022-08-03T09:41:00.201Z,27.44
2022-08-03T09:43:28.731Z,27.52
2022-08-03T09:46:07.626Z,28.04
2022-08-03T09:48:36.756Z,27.71
2022-08-03T09:51:13.252Z,26.92
2022-08-03T09:53:58.932Z,25.23
2022-08-03T09:56:47.681Z,24.66
2022-08-03T09:59:28.158Z,25.60
2022-08-03T10:01:57.378Z,26.47
2022-08-03T10:04:25.769Z,26.01
2022-08-03T10:07:09.471Z,25.11
2022-08-03T10:09:54.924Z,25.22
2022-08-03T10:12:23.237Z,24.97
2022-08-03T10:14:52.601Z,25.98
2022-08-03T10:17:21.468Z,25.33
2022-08-03T10:19:49.854Z,24.90
2022-08-03T10:22:22.226Z,26.04
2022-08-03T10:25:09.927Z,27.94
2022-08-03T10:27:51.599Z,26.37
2022-08-03T10:30:19.134Z,26.44
2022-08-03T10:32:59.052Z,25.22
2022-08-03T10:35:27.044Z,25.49
2022-08-03T10:38:03.168Z,24.51
2022-08-03T10:40:47.944Z,24.53
2022-08-03T10:43:23.076Z,25.21
2022-08-03T10:45:51.148Z,25.93
2022-08-03T10:48:19.823Z,24.93
2022-08-03T10:50:49.589Z,24.47
2022-08-03T10:53:33.671Z,24.13
2022-08-03T10:56:21.658Z,22.42
2022-08-03T10:59:08.948Z,22.61
2022-08-03T11:01:54.219Z,21.61
2022-08-03T11:04:29.207Z,22.41
2022-08-03T11:07:19.422Z,23.00
2022-08-03T11:09:51.131Z,24.49
2022-08-03T11:12:31.332Z,24.60
2022-08-03T11:15:02.174Z,25.50
2022-08-03T11:17:29.870Z,24.65
2022-08-03T11:19:58.619Z,23.83
2022-08-03T11:22:46.439Z,24.16
2022-08-03T11:25:53.779Z,24.91
2022-08-03T11:28:28.540Z,24.21
2022-08-03T11:30:56.135Z,24.53
2022-08-03T11:33:32.984Z,24.72
2022-08-03T11:36:02.457Z,24.38
2022-08-03T11:38:31.545Z,25.66
2022-08-03T11:40:59.165Z,24.88
2022-08-03T11:43:34.956Z,24.86
2022-08-03T11:46:06.530Z,24.72
2022-08-03T11:48:40.866Z,24.76
2022-08-03T11:51:21.460Z,25.22
2022-08-03T11:53:55.810Z,22.94
2022-08-03T11:56:23.557Z,23.43
2022-08-03T11:59:01.615Z,22.53
2022-08-03T12:01:41.801Z,23.87
2022-08-03T12:04:10.735Z,24.17
2022-08-03T12:06:56.348Z,24.82
2022-08-03T12:09:23.821Z,25.67
2022-08-03T12:12:00.591Z,25.65
2022-08-03T12:14:50.374Z,25.72
2022-08-03T12:17:18.082Z,26.79
2022-08-03T12:19:46.022Z,27.56
2022-08-03T12:22:13.679Z,27.39
2022-08-03T12:24:47.223Z,28.59
2022-08-03T12:27:25.198Z,27.99
2022-08-03T12:29:58.308Z,27.68
2022-08-03T12:32:27.658Z,27.36
2022-08-03T12:35:00.258Z,27.76
2022-08-03T12:37:28.611Z,28.22
2022-08-03T12:40:07.797Z,28.21
2022-08-03T12:42:40.827Z,28.13
2022-08-03T12:45:28.707Z,27.86
2022-08-03T12:47:58.311Z,27.74
2022-08-03T12:50:32.160Z,27.94
2022-08-03T12:53:01.552Z,28.10
2022-08-03T12:55:57.357Z,27.78
2022-08-03T12:58:33.946Z,27.98
2022-08-03T13:01:05.275Z,28.00
2022-08-03T13:03:49.664Z,27.24
2022-08-03T13:06:20.151Z,27.65
2022-08-03T13:08:48.401Z,27.12
2022-08-03T13:11:47.614Z,27.24
2022-08-03T13:14:19.757Z,27.26
2022-08-03T13:16:49.272Z,27.39
2022-08-03T13:19:16.901Z,26.51
2022-08-03T13:22:01.977Z,26.26
2022-08-03T13:24:33.214Z,26.93
2022-08-03T13:27:02.809Z,26.51
2022-08-03T13:29:50.286Z,26.80
2022-08-03T13:32:17.817Z,27.51
2022-08-03T13:34:45.277Z,26.97
2022-08-03T13:37:13.765Z,26.41
2022-08-03T13:39:58.175Z,25.94
2022-08-03T13:42:28.592Z,25.62
2022-08-03T13:44:56.063Z,25.50
2022-08-03T13:47:23.562Z,25.73
2022-08-03T13:50:00.174Z,25.93
2022-08-03T13:52:29.273Z,25.88
2022-08-03T13:54:56.760Z,25.99
2022-08-03T13:58:03.797Z,26.01
2022-08-03T14:00:12.209Z,25.45
2022-08-03T14:02:39.759Z,25.68
2022-08-03T14:05:08.182Z,25.23
2022-08-03T14:07:35.636Z,25.48
2022-08-03T14:10:03.415Z,25.26
2022-08-03T14:12:31.998Z,25.39
2022-08-03T14:15:01.547Z,25.65
2022-08-03T14:17:42.250Z,25.48
2022-08-03T14:20:36.918Z,25.73
2022-08-03T14:23:04.454Z,25.35
2022-08-03T14:25:50.062Z,25.24
2022-08-03T14:28:20.424Z,25.28
2022-08-03T14:30:48.603Z,24.73
2022-08-03T14:33:16.558Z,25.19
2022-08-03T14:35:44.135Z,24.07
2022-08-03T14:38:11.799Z,24.79
2022-08-03T14:40:39.303Z,24.62
2022-08-03T14:43:06.999Z,24.98
2022-08-03T14:45:34.581Z,25.13
2022-08-03T14:50:28.430Z,24.60
2022-08-03T14:50:52.790Z,23.95
2022-08-03T14:53:21.107Z,23.73
2022-08-03T14:55:51.555Z,24.26
2022-08-03T14:58:25.290Z,23.57
2022-08-03T15:00:54.769Z,24.36
2022-08-03T15:03:26.083Z,25.32
2022-08-03T15:05:55.578Z,24.52
2022-08-03T15:08:24.502Z,24.52
2022-08-03T15:10:52.704Z,24.46
2022-08-03T15:13:20.768Z,24.62
2022-08-03T15:15:49.823Z,24.73
2022-08-03T15:18:17.563Z,24.80
2022-08-03T15:20:46.668Z,24.49
2022-08-03T15:23:15.673Z,24.82
2022-08-03T15:26:28.085Z,24.42
2022-08-03T15:28:32.771Z,24.56
2022-08-03T15:31:01.290Z,24.45
2022-08-03T15:33:29.492Z,24.56
2022-08-03T15:35:57.641Z,24.43
2022-08-03T15:38:26.262Z,24.66
2022-08-03T15:40:54.962Z,24.32
2022-08-03T15:43:23.593Z,24.44
2022-08-03T15:46:19.149Z,24.40
2022-08-03T15:48:39.455Z,24.24
2022-08-03T15:51:07.598Z,25.29
2022-08-03T15:53:35.437Z,24.97
2022-08-03T15:56:09.705Z,24.62
2022-08-03T15:59:04.294Z,24.39
2022-08-03T16:01:27.337Z,24.36
2022-08-03T16:03:54.842Z,25.29
2022-08-03T16:06:34.968Z,24.28
2022-08-03T16:09:22.881Z,24.46
2022-08-03T16:11:52.353Z,24.60
2022-08-03T16:14:33.335Z,24.99
2022-08-03T16:17:03.790Z,25.20
2022-08-03T16:19:31.300Z,24.47
2022-08-03T16:22:01.134Z,24.95
2022-08-03T16:24:28.845Z,25.62
2022-08-03T16:27:00.546Z,25.01
2022-08-03T16:29:28.607Z,24.81
2022-08-03T16:31:56.034Z,24.86
2022-08-03T16:34:24.141Z,25.20
2022-08-03T16:36:52.477Z,25.66
2022-08-03T16:39:19.928Z,24.76
2022-08-03T16:41:54.315Z,24.64
2022-08-03T16:44:30.686Z,24.97
2022-08-03T16:46:59.291Z,25.75
2022-08-03T16:49:53.182Z,25.60
2022-08-03T16:52:16.530Z,25.40
2022-08-03T16:54:52.663Z,25.92
2022-08-03T16:57:56.630Z,25.97
2022-08-03T17:00:33.701Z,26.19
2022-08-03T17:03:04.447Z,26.60
2022-08-03T17:05:47.125Z,26.08
2022-08-03T17:08:16.295Z,26.51
2022-08-03T17:10:46.575Z,26.80
2022-08-03T17:13:21.533Z,26.40
2022-08-03T17:15:57.680Z,26.42
2022-08-03T17:18:29.772Z,26.37
2022-08-03T17:20:59.205Z,26.44
2022-08-03T17:23:38.581Z,26.34
2022-08-03T17:26:20.601Z,26.47
2022-08-03T17:28:58.145Z,27.22
2022-08-03T17:31:31.771Z,26.66
2022-08-03T17:34:01.529Z,26.11
2022-08-03T17:37:00.862Z,26.34
2022-08-03T17:39:30.829Z,26.70
2022-08-03T17:42:29.110Z,27.31
2022-08-03T17:44:57.873Z,27.35
2022-08-03T17:47:29.382Z,27.78
2022-08-03T17:50:23.478Z,27.69
2022-08-03T17:53:07.050Z,27.37
2022-08-03T17:55:57.370Z,27.72
2022-08-03T17:58:55.158Z,27.79
2022-08-03T18:02:00.528Z,27.91
2022-08-03T18:04:41.253Z,27.60
2022-08-03T18:07:12.891Z,27.73
2022-08-03T18:10:03.527Z,27.98
2022-08-03T18:12:47.250Z,28.33
2022-08-03T18:15:31.937Z,28.52
2022-08-03T18:18:10.954Z,28.74
2022-08-03T18:20:41.917Z,28.74
2022-08-03T18:23:25.031Z,28.60
2022-08-03T18:26:01.713Z,30.93
2022-08-03T18:28:32.383Z,31.29
2022-08-03T18:31:05.607Z,30.72
2022-08-03T18:34:18.212Z,32.35
2022-08-03T18:36:29.922Z,30.64
2022-08-03T18:38:59.896Z,31.64
2022-08-03T18:41:33.029Z,32.44
2022-08-03T18:44:08.394Z,32.59
2022-08-03T18:47:16.317Z,33.05
2022-08-03T18:50:11.777Z,33.05
2022-08-03T18:52:58.055Z,33.94
2022-08-03T18:55:35.423Z,34.46
2022-08-03T18:58:06.282Z,34.35
2022-08-03T19:00:42.564Z,34.74
2022-08-03T19:03:24.779Z,35.38
2022-08-03T19:06:02.813Z,34.84
2022-08-03T19:08:49.492Z,35.35
2022-08-03T19:12:11.284Z,35.76
2022-08-03T19:14:35.264Z,36.14
2022-08-03T19:17:09.838Z,36.52
2022-08-03T19:19:44.543Z,36.39
2022-08-03T19:22:15.885Z,36.62
2022-08-03T19:24:46.640Z,37.27
2022-08-03T19:27:16.046Z,37.44
2022-08-03T19:29:58.764Z,37.71
2022-08-03T19:32:32.610Z,37.73
2022-08-03T19:35:02.086Z,37.67
2022-08-03T19:37:38.258Z,38.45
2022-08-03T19:40:10.236Z,38.21
2022-08-03T19:42:44.684Z,38.84
2022-08-03T19:45:15.432Z,39.29
2022-08-03T19:47:46.231Z,39.69
2022-08-03T19:50:14.581Z,39.78
2022-08-03T19:52:46.745Z,40.58
2022-08-03T19:55:16.989Z,40.52
2022-08-03T19:57:49.186Z,40.79
2022-08-03T20:00:26.064Z,40.88
2022-08-03T20:02:54.631Z,41.34
2022-08-03T20:05:22.582Z,42.12
2022-08-03T20:07:50.783Z,42.05
2022-08-03T20:10:20.153Z,42.30
2022-08-03T20:12:49.721Z,43.04
2022-08-03T20:15:18.310Z,43.03
2022-08-03T20:17:58.947Z,43.06
2022-08-03T20:20:31.991Z,43.45
2022-08-03T20:23:06.924Z,43.61
2022-08-03T20:25:48.673Z,44.18
2022-08-03T20:28:49.790Z,44.41
2022-08-03T20:31:32.567Z,45.13
2022-08-03T20:34:05.403Z,45.06
2022-08-03T20:36:33.326Z,45.47
2022-08-03T20:39:00.979Z,45.30
2022-08-03T20:41:31.037Z,45.99
2022-08-03T20:44:00.914Z,45.68
2022-08-03T20:46:30.007Z,45.89
2022-08-03T20:49:23.049Z,46.16
2022-08-03T20:51:53.211Z,46.42
2022-08-03T20:54:29.821Z,46.55
2022-08-03T20:57:03.606Z,46.59
2022-08-03T20:59:50.613Z,46.55
2022-08-03T21:02:30.365Z,46.98
2022-08-03T21:05:03.371Z,47.69
2022-08-03T21:07:45.721Z,47.58
2022-08-03T21:10:31.077Z,47.51
2022-08-03T21:13:17.103Z,47.35
2022-08-03T21:16:06.232Z,47.63
2022-08-03T21:18:42.731Z,47.80
2022-08-03T21:21:13.881Z,47.84
2022-08-03T21:23:48.806Z,48.07
2022-08-03T21:26:19.812Z,48.45
2022-08-03T21:28:49.085Z,48.44
2022-08-03T21:31:22.356Z,48.70
2022-08-03T21:33:57.509Z,48.90
2022-08-03T21:36:28.524Z,49.49
2022-08-03T21:38:57.403Z,49.46
2022-08-03T21:41:27.530Z,49.36
2022-08-03T21:43:55.420Z,49.78
2022-08-03T21:46:24.018Z,49.91
2022-08-03T21:50:06.953Z,50.09
2022-08-03T21:51:50.435Z,50.32
2022-08-03T21:54:21.008Z,50.52
2022-08-03T21:56:54.613Z,51.07
2022-08-03T21:59:24.519Z,50.83
2022-08-03T22:01:55.209Z,51.13
2022-08-03T22:04:55.248Z,51.44
2022-08-03T22:07:14.190Z,51.61
2022-08-03T22:09:51.321Z,51.61
2022-08-03T22:12:24.622Z,52.18
2022-08-03T22:15:00.809Z,52.21
2022-08-03T22:17:55.263Z,52.42
2022-08-03T22:20:19.908Z,52.55
2022-08-03T22:22:55.588Z,52.86
2022-08-03T22:25:30.534Z,53.11
2022-08-03T22:28:00.785Z,53.43
2022-08-03T22:30:29.196Z,53.33
2022-08-03T22:32:57.893Z,53.69
2022-08-03T22:35:27.053Z,53.79
2022-08-03T22:37:58.856Z,54.04
2022-08-03T22:40:27.825Z,53.87
2022-08-03T22:42:56.558Z,54.47
2022-08-03T22:46:07.647Z,54.71
2022-08-03T22:48:13.561Z,55.04
2022-08-03T22:50:45.262Z,55.45
2022-08-03T22:53:21.161Z,55.89
2022-08-03T22:55:52.433Z,55.28
2022-08-03T22:58:23.058Z,55.73
2022-08-03T23:01:04.407Z,55.86
2022-08-03T23:03:59.804Z,55.89
2022-08-03T23:06:26.309Z,56.24
2022-08-03T23:08:55.485Z,56.50
2022-08-03T23:11:25.613Z,56.58
2022-08-03T23:13:56.810Z,56.75
2022-08-03T23:16:28.614Z,56.96
2022-08-03T23:18:58.873Z,57.29
2022-08-03T23:22:00.723Z,57.62
2022-08-03T23:24:29.537Z,57.26
2022-08-03T23:26:58.502Z,57.56
2022-08-03T23:29:28.845Z,57.56
2022-08-03T23:31:58.497Z,57.88
2022-08-03T23:34:46.068Z,58.19
2022-08-03T23:37:18.361Z,58.32
2022-08-03T23:39:47.704Z,58.34
2022-08-03T23:42:20.014Z,58.69
2022-08-03T23:44:52.915Z,58.27
2022-08-03T23:47:20.596Z,58.67
2022-08-03T23:49:48.331Z,59.16
2022-08-03T23:52:22.340Z,59.09
2022-08-03T23:55:13.120Z,59.77
2022-08-03T23:58:05.316Z,59.75
